Time;durP1;ratioP1;P1;durP2;ratioP2;P2;SDS_P1;SDS_P2;PMS_P1;PMS_P2;Temp;Humidity;BMP_temperature;BMP_pressure;BME280_temperature;BME280_humidity;BME280_pressure;Samples;Min_cycle;Max_cycle;Signal;HPM_P1;HPM_P2
2023/09/24 00:00:38;;;;;;;11.20;5.90;;;;;;;;;;5014683;28;20034;-74
2023/09/24 00:03:06;;;;;;;10.18;5.13;;;;;;;;;;5014464;28;20092;-74
2023/09/24 00:05:32;;;;;;;10.38;4.95;;;;;;;;;;5014671;28;20026;-75
2023/09/24 00:07:58;;;;;;;7.72;3.28;;;;;;;;;;5014631;28;20125;-74
2023/09/24 00:10:24;;;;;;;6.10;2.67;;;;;;;;;;5014575;28;20109;-74
2023/09/24 00:12:50;;;;;;;7.20;2.33;;;;;;;;;;5014182;28;20026;-74
2023/09/24 00:15:16;;;;;;;6.32;2.17;;;;;;;;;;5014089;28;20040;-74
2023/09/24 00:17:42;;;;;;;7.18;1.90;;;;;;;;;;5014165;28;20026;-74
2023/09/24 00:20:09;;;;;;;6.63;2.00;;;;;;;;;;5014213;28;20042;-74
2023/09/24 00:22:35;;;;;;;8.63;2.08;;;;;;;;;;5013710;28;20081;-74
2023/09/24 00:25:01;;;;;;;4.43;1.50;;;;;;;;;;5013795;28;20433;-74
2023/09/24 00:27:27;;;;;;;6.95;1.70;;;;;;;;;;5013942;28;20022;-74
2023/09/24 00:29:53;;;;;;;5.75;1.98;;;;;;;;;;5013873;28;20080;-74
2023/09/24 00:32:19;;;;;;;6.30;1.88;;;;;;;;;;5013852;28;20453;-74
2023/09/24 00:34:45;;;;;;;7.80;1.67;;;;;;;;;;5013766;28;20030;-74
2023/09/24 00:37:11;;;;;;;4.28;1.38;;;;;;;;;;5013795;28;20026;-74
2023/09/24 00:39:37;;;;;;;7.40;1.80;;;;;;;;;;5014034;28;20044;-74
2023/09/24 00:42:05;;;;;;;6.85;1.45;;;;;;;;;;5013951;28;20041;-74
2023/09/24 00:44:31;;;;;;;8.77;2.00;;;;;;;;;;5013958;28;20033;-74
2023/09/24 00:46:58;;;;;;;7.38;1.60;;;;;;;;;;5013610;28;20026;-74
2023/09/24 00:49:24;;;;;;;5.53;1.70;;;;;;;;;;5013849;28;20030;-74
2023/09/24 00:51:50;;;;;;;4.38;1.50;;;;;;;;;;5013522;28;20018;-74
2023/09/24 00:54:16;;;;;;;7.82;1.55;;;;;;;;;;5014090;28;20037;-74
2023/09/24 00:56:42;;;;;;;5.68;1.25;;;;;;;;;;5013452;28;20037;-74
2023/09/24 00:59:08;;;;;;;7.07;1.50;;;;;;;;;;5013492;28;20484;-74
2023/09/24 01:01:34;;;;;;;5.28;1.60;;;;;;;;;;5013442;28;20022;-74
2023/09/24 01:04:03;;;;;;;2.85;1.40;;;;;;;;;;5013297;28;20107;-74
2023/09/24 01:06:31;;;;;;;7.30;1.60;;;;;;;;;;5013594;28;20400;-74
2023/09/24 01:08:57;;;;;;;6.38;1.35;;;;;;;;;;5012749;28;20030;-74
2023/09/24 01:11:24;;;;;;;7.70;1.40;;;;;;;;;;4993837;28;20524;-74
2023/09/24 01:13:50;;;;;;;3.80;1.38;;;;;;;;;;4993844;28;20026;-74
2023/09/24 01:16:16;;;;;;;6.22;1.52;;;;;;;;;;4993563;28;20038;-74
2023/09/24 01:18:44;;;;;;;6.43;1.70;;;;;;;;;;4993374;28;20031;-74
2023/09/24 01:21:11;;;;;;;6.30;1.70;;;;;;;;;;4992958;28;20038;-74
2023/09/24 01:23:38;;;;;;;2.50;1.15;;;;;;;;;;4993452;28;20109;-74
2023/09/24 01:26:04;;;;;;;9.00;1.50;;;;;;;;;;4993331;28;20018;-74
2023/09/24 01:28:30;;;;;;;3.85;1.52;;;;;;;;;;4993378;28;20028;-74
2023/09/24 01:30:57;;;;;;;6.85;1.60;;;;;;;;;;4993361;28;20022;-74
2023/09/24 01:33:23;;;;;;;5.10;1.40;;;;;;;;;;4975940;28;20037;-74
2023/09/24 01:35:49;;;;;;;7.32;1.63;;;;;;;;;;4992959;28;20109;-73
2023/09/24 01:38:16;;;;;;;2.70;1.50;;;;;;;;;;4993143;28;20088;-74
2023/09/24 01:40:42;;;;;;;6.40;1.67;;;;;;;;;;4993325;28;20118;-74
2023/09/24 01:43:08;;;;;;;6.20;1.85;;;;;;;;;;4975769;28;20106;-74
2023/09/24 01:45:38;;;;;;;6.95;1.88;;;;;;;;;;4993230;28;20033;-74
2023/09/24 01:48:05;;;;;;;6.10;1.92;;;;;;;;;;4993355;28;20113;-74
2023/09/24 01:50:35;;;;;;;11.20;2.40;;;;;;;;;;4993122;28;20026;-74
2023/09/24 01:53:02;;;;;;;6.65;2.38;;;;;;;;;;4993197;28;20049;-75
2023/09/24 01:55:28;;;;;;;8.02;2.30;;;;;;;;;;4993008;28;20033;-74
2023/09/24 01:57:55;;;;;;;8.77;2.47;;;;;;;;;;4993063;28;20076;-74
2023/09/24 02:00:23;;;;;;;7.97;2.83;;;;;;;;;;4992883;28;20394;-74
2023/09/24 02:02:50;;;;;;;6.55;2.70;;;;;;;;;;4993236;28;20019;-74
2023/09/24 02:05:16;;;;;;;10.18;3.10;;;;;;;;;;4993062;28;20023;-74
2023/09/24 02:07:42;;;;;;;7.80;3.08;;;;;;;;;;4992971;28;20026;-74
2023/09/24 02:10:08;;;;;;;9.85;2.95;;;;;;;;;;4992934;28;20041;-74
2023/09/24 02:12:38;;;;;;;11.60;3.25;;;;;;;;;;4992903;28;20350;-74
2023/09/24 02:15:14;;;;;;;7.65;3.22;;;;;;;;;;4992832;28;20477;-74
2023/09/24 02:17:41;;;;;;;6.75;3.22;;;;;;;;;;4992872;28;20029;-74
2023/09/24 02:23:04;;;;;;;11.70;3.33;;;;;;;;;;4976937;28;20086;-74
2023/09/24 02:25:31;;;;;;;9.93;3.53;;;;;;;;;;4992781;28;20493;-74
2023/09/24 02:27:58;;;;;;;8.93;3.33;;;;;;;;;;4992774;28;20015;-74
2023/09/24 02:30:25;;;;;;;8.60;3.42;;;;;;;;;;4992656;28;20030;-74
2023/09/24 02:32:51;;;;;;;8.95;3.60;;;;;;;;;;4992745;28;20022;-74
2023/09/24 02:35:17;;;;;;;7.97;3.70;;;;;;;;;;4992819;28;20057;-74
2023/09/24 02:37:45;;;;;;;8.68;3.42;;;;;;;;;;4992664;28;20062;-74
2023/09/24 02:40:18;;;;;;;7.45;3.70;;;;;;;;;;4992946;28;20062;-74
2023/09/24 02:42:46;;;;;;;9.27;3.30;;;;;;;;;;4992924;28;20030;-74
2023/09/24 02:45:15;;;;;;;8.80;3.60;;;;;;;;;;4992823;28;20062;-74
2023/09/24 02:47:41;;;;;;;5.38;3.30;;;;;;;;;;4993967;28;20021;-74
2023/09/24 02:50:14;;;;;;;6.53;3.75;;;;;;;;;;4996240;28;20026;-74
2023/09/24 02:52:46;;;;;;;10.07;3.40;;;;;;;;;;4978728;28;20054;-74
2023/09/24 02:55:16;;;;;;;7.18;3.35;;;;;;;;;;4996101;28;20027;-74
2023/09/24 02:57:44;;;;;;;4.45;2.78;;;;;;;;;;4996165;28;20109;-74
2023/09/24 03:00:26;;;;;;;9.77;3.50;;;;;;;;;;4996229;28;20373;-74
2023/09/24 03:03:00;;;;;;;6.85;3.45;;;;;;;;;;4996069;28;20022;-74
2023/09/24 03:05:28;;;;;;;5.60;2.83;;;;;;;;;;4978492;28;20034;-74
2023/09/24 03:07:55;;;;;;;7.53;3.08;;;;;;;;;;4996151;28;20477;-74
2023/09/24 03:10:21;;;;;;;5.38;3.20;;;;;;;;;;4995851;28;20069;-74
2023/09/24 03:12:48;;;;;;;10.40;3.55;;;;;;;;;;4995802;28;20032;-74
2023/09/24 03:15:14;;;;;;;7.78;3.10;;;;;;;;;;4995798;28;20080;-74
2023/09/24 03:17:41;;;;;;;8.55;3.38;;;;;;;;;;4978291;28;20030;-75
2023/09/24 03:20:15;;;;;;;7.72;3.53;;;;;;;;;;4995522;28;20042;-75
2023/09/24 03:22:42;;;;;;;6.72;3.60;;;;;;;;;;4995180;28;20046;-75
2023/09/24 03:25:10;;;;;;;6.90;3.35;;;;;;;;;;4995656;28;20022;-73
2023/09/24 03:27:38;;;;;;;12.45;4.05;;;;;;;;;;4995473;28;20342;-73
2023/09/24 03:30:05;;;;;;;6.55;3.78;;;;;;;;;;4995690;28;20061;-74
2023/09/24 03:32:31;;;;;;;6.13;3.67;;;;;;;;;;4995430;28;20019;-75
2023/09/24 03:34:57;;;;;;;7.55;3.83;;;;;;;;;;4995580;28;20457;-75
2023/09/24 03:37:23;;;;;;;12.13;3.85;;;;;;;;;;4995338;28;20080;-75
2023/09/24 03:39:49;;;;;;;8.07;3.75;;;;;;;;;;4995231;28;20089;-75
2023/09/24 03:42:15;;;;;;;6.57;3.75;;;;;;;;;;4995206;28;20034;-76
2023/09/24 03:44:41;;;;;;;11.05;4.20;;;;;;;;;;4995231;28;20033;-73
2023/09/24 03:47:07;;;;;;;9.38;3.63;;;;;;;;;;4995242;28;20109;-73
2023/09/24 03:49:33;;;;;;;10.48;3.60;;;;;;;;;;4977668;28;20165;-73
2023/09/24 03:51:59;;;;;;;9.77;3.85;;;;;;;;;;4995030;28;20501;-73
2023/09/24 03:54:26;;;;;;;10.13;3.88;;;;;;;;;;4995063;28;20029;-73
2023/09/24 03:56:51;;;;;;;11.27;3.97;;;;;;;;;;4995270;28;20019;-73
2023/09/24 03:59:17;;;;;;;8.57;3.97;;;;;;;;;;4994112;28;20499;-73
2023/09/24 04:01:44;;;;;;;7.88;4.22;;;;;;;;;;4994843;28;20034;-73
2023/09/24 04:04:11;;;;;;;8.73;4.35;;;;;;;;;;4994843;28;20065;-73
2023/09/24 04:06:39;;;;;;;10.70;4.50;;;;;;;;;;4995105;28;20026;-73
2023/09/24 04:09:06;;;;;;;11.88;4.20;;;;;;;;;;4995037;28;20029;-73
2023/09/24 04:11:32;;;;;;;7.03;4.35;;;;;;;;;;4995080;28;20022;-73
2023/09/24 04:13:58;;;;;;;12.85;4.55;;;;;;;;;;4994955;28;20024;-72
2023/09/24 04:16:24;;;;;;;10.02;4.65;;;;;;;;;;4995504;28;20029;-73
2023/09/24 04:18:53;;;;;;;8.95;4.32;;;;;;;;;;4993733;28;20030;-73
2023/09/24 04:21:19;;;;;;;10.95;4.10;;;;;;;;;;4993053;28;20113;-74
2023/09/24 04:23:46;;;;;;;10.77;4.60;;;;;;;;;;4993501;28;20031;-73
2023/09/24 04:26:21;;;;;;;10.25;4.10;;;;;;;;;;4993996;28;20023;-73
2023/09/24 04:28:47;;;;;;;9.60;3.90;;;;;;;;;;4994382;28;20026;-73
2023/09/24 04:31:13;;;;;;;12.30;3.92;;;;;;;;;;4994385;28;20026;-73
2023/09/24 04:33:41;;;;;;;8.55;3.80;;;;;;;;;;4994268;28;20022;-73
2023/09/24 04:36:07;;;;;;;7.63;3.97;;;;;;;;;;4994456;28;20075;-73
2023/09/24 04:38:33;;;;;;;6.45;3.45;;;;;;;;;;4994475;28;20031;-73
2023/09/24 04:40:59;;;;;;;6.22;3.53;;;;;;;;;;4994066;28;20053;-73
2023/09/24 04:43:25;;;;;;;8.80;3.40;;;;;;;;;;4994174;28;20062;-73
2023/09/24 04:45:52;;;;;;;8.43;3.35;;;;;;;;;;4994304;28;20060;-73
2023/09/24 04:48:18;;;;;;;9.00;3.55;;;;;;;;;;4994053;28;20026;-73
2023/09/24 04:50:44;;;;;;;8.50;3.53;;;;;;;;;;4976605;28;20033;-73
2023/09/24 04:53:10;;;;;;;8.98;3.33;;;;;;;;;;4993907;28;20026;-73
2023/09/24 04:55:36;;;;;;;7.38;3.03;;;;;;;;;;4976351;28;20034;-73
2023/09/24 04:58:02;;;;;;;5.57;3.17;;;;;;;;;;4993822;28;20034;-73
2023/09/24 05:00:29;;;;;;;8.80;3.10;;;;;;;;;;4976179;28;20034;-73
2023/09/24 05:02:55;;;;;;;8.02;3.47;;;;;;;;;;4993761;28;20022;-73
2023/09/24 05:05:21;;;;;;;7.25;3.50;;;;;;;;;;4993603;28;20048;-73
2023/09/24 05:07:48;;;;;;;8.48;3.50;;;;;;;;;;4993627;28;20347;-73
2023/09/24 05:10:14;;;;;;;7.03;3.28;;;;;;;;;;4994040;28;20065;-73
2023/09/24 05:12:41;;;;;;;9.02;3.33;;;;;;;;;;4993420;28;20030;-73
2023/09/24 05:15:08;;;;;;;10.25;3.83;;;;;;;;;;4993200;28;20458;-73
2023/09/24 05:17:34;;;;;;;11.50;3.67;;;;;;;;;;5009773;28;20029;-73
2023/09/24 05:20:00;;;;;;;7.05;3.67;;;;;;;;;;5013327;28;20070;-74
2023/09/24 05:22:27;;;;;;;7.13;3.50;;;;;;;;;;5013026;28;20054;-74
2023/09/24 05:24:53;;;;;;;6.72;3.60;;;;;;;;;;5013096;28;20488;-74
2023/09/24 05:27:20;;;;;;;9.20;3.75;;;;;;;;;;5013042;28;20018;-74
2023/09/24 05:29:46;;;;;;;11.02;3.92;;;;;;;;;;5012858;28;20472;-74
2023/09/24 05:32:13;;;;;;;15.43;4.60;;;;;;;;;;5012910;28;20369;-74
2023/09/24 05:34:39;;;;;;;6.55;4.55;;;;;;;;;;4995361;28;20095;-74
2023/09/24 05:37:06;;;;;;;12.35;4.68;;;;;;;;;;5013081;28;20029;-74
2023/09/24 05:39:33;;;;;;;11.00;5.20;;;;;;;;;;5012945;28;20034;-74
2023/09/24 05:41:59;;;;;;;9.73;5.03;;;;;;;;;;5013013;28;20026;-74
2023/09/24 05:44:25;;;;;;;12.55;5.95;;;;;;;;;;5012799;28;20026;-74
2023/09/24 05:46:51;;;;;;;8.35;5.50;;;;;;;;;;5012760;28;20100;-75
2023/09/24 05:49:18;;;;;;;15.27;6.18;;;;;;;;;;5012708;28;20489;-75
2023/09/24 05:51:44;;;;;;;13.32;6.25;;;;;;;;;;5012843;28;20033;-75
2023/09/24 05:54:10;;;;;;;11.63;5.88;;;;;;;;;;5012881;28;20033;-75
2023/09/24 05:56:37;;;;;;;11.27;5.95;;;;;;;;;;5013018;28;20022;-75
2023/09/24 05:59:03;;;;;;;14.10;6.05;;;;;;;;;;4994723;28;20033;-75
2023/09/24 06:01:29;;;;;;;15.07;6.60;;;;;;;;;;5012702;28;20030;-75
2023/09/24 06:03:55;;;;;;;12.52;5.47;;;;;;;;;;5012495;28;20029;-75
2023/09/24 06:06:21;;;;;;;13.85;6.32;;;;;;;;;;5012814;28;20026;-75
2023/09/24 06:08:47;;;;;;;15.80;5.85;;;;;;;;;;5012545;28;20578;-75
2023/09/24 06:11:13;;;;;;;14.95;5.68;;;;;;;;;;4994829;28;20088;-75
2023/09/24 06:13:39;;;;;;;12.60;5.78;;;;;;;;;;5012454;28;20034;-75
2023/09/24 06:16:06;;;;;;;13.30;5.97;;;;;;;;;;5012560;28;20030;-75
2023/09/24 06:18:32;;;;;;;11.93;5.75;;;;;;;;;;5012428;28;20037;-75
2023/09/24 06:20:59;;;;;;;12.43;5.93;;;;;;;;;;5012063;28;20472;-75
2023/09/24 06:23:26;;;;;;;9.30;4.93;;;;;;;;;;5014832;28;20068;-75
2023/09/24 06:25:56;;;;;;;8.25;5.10;;;;;;;;;;5015805;28;20427;-75
2023/09/24 06:28:22;;;;;;;10.60;5.50;;;;;;;;;;5016244;28;20014;-75
2023/09/24 06:30:48;;;;;;;9.25;5.13;;;;;;;;;;5016447;28;20030;-75
2023/09/24 06:33:14;;;;;;;12.50;5.05;;;;;;;;;;5015863;28;20025;-74
2023/09/24 06:35:40;;;;;;;9.15;5.07;;;;;;;;;;4998642;28;20420;-75
2023/09/24 06:38:06;;;;;;;9.98;4.60;;;;;;;;;;5015785;28;20519;-74
2023/09/24 06:40:33;;;;;;;9.25;4.55;;;;;;;;;;5015728;28;20104;-75
2023/09/24 06:42:59;;;;;;;9.45;4.55;;;;;;;;;;5015930;28;20026;-75
2023/09/24 06:45:25;;;;;;;10.00;5.22;;;;;;;;;;5015856;28;20025;-75
2023/09/24 06:47:51;;;;;;;10.00;4.68;;;;;;;;;;5015906;28;20033;-75
2023/09/24 06:50:17;;;;;;;10.07;4.50;;;;;;;;;;5015763;28;20042;-74
2023/09/24 06:52:43;;;;;;;10.40;4.32;;;;;;;;;;5015730;28;20405;-74
2023/09/24 06:55:09;;;;;;;7.25;3.83;;;;;;;;;;5015732;28;20099;-75
2023/09/24 06:57:36;;;;;;;7.50;4.40;;;;;;;;;;5015662;28;20080;-75
2023/09/24 07:00:10;;;;;;;11.45;5.05;;;;;;;;;;5015464;28;20025;-75
2023/09/24 07:02:36;;;;;;;8.15;4.95;;;;;;;;;;5015699;28;20105;-75
2023/09/24 07:05:04;;;;;;;8.38;4.95;;;;;;;;;;5015460;28;20097;-75
2023/09/24 07:07:30;;;;;;;10.60;4.30;;;;;;;;;;5015575;28;20026;-75
2023/09/24 07:09:59;;;;;;;11.80;4.15;;;;;;;;;;5015512;28;20037;-75
2023/09/24 07:12:26;;;;;;;6.90;4.10;;;;;;;;;;5015606;28;20022;-75
2023/09/24 07:14:53;;;;;;;9.43;3.97;;;;;;;;;;5015625;28;20018;-75
2023/09/24 07:17:19;;;;;;;9.13;3.65;;;;;;;;;;5015641;28;20092;-75
2023/09/24 07:19:47;;;;;;;6.45;3.22;;;;;;;;;;5015160;28;20037;-75
2023/09/24 07:22:14;;;;;;;5.82;3.00;;;;;;;;;;5014942;28;20046;-75
2023/09/24 07:24:40;;;;;;;6.70;3.42;;;;;;;;;;5015082;28;20372;-75
2023/09/24 07:27:06;;;;;;;8.93;3.00;;;;;;;;;;5015472;28;20033;-75
2023/09/24 07:29:32;;;;;;;4.50;2.67;;;;;;;;;;5015078;28;20030;-75
2023/09/24 07:31:58;;;;;;;6.85;2.80;;;;;;;;;;5015168;28;20117;-75
2023/09/24 07:34:24;;;;;;;7.07;2.83;;;;;;;;;;5013788;28;20532;-76
2023/09/24 07:36:50;;;;;;;4.93;1.80;;;;;;;;;;5014969;28;20022;-76
2023/09/24 07:39:16;;;;;;;6.72;2.50;;;;;;;;;;5015029;28;20354;-77
2023/09/24 07:41:43;;;;;;;3.33;1.75;;;;;;;;;;5015026;28;20034;-77
2023/09/24 07:44:09;;;;;;;6.07;1.92;;;;;;;;;;4997395;28;20107;-76
2023/09/24 07:46:35;;;;;;;6.47;2.33;;;;;;;;;;5014685;28;20053;-76
2023/09/24 07:49:05;;;;;;;5.78;2.15;;;;;;;;;;5014876;28;20026;-76
2023/09/24 07:51:31;;;;;;;;;;;;;;;;;;5015203;28;20425;-75
2023/09/24 07:53:57;;;;;;;3.28;1.60;;;;;;;;;;5014231;28;20656;-76
2023/09/24 07:56:23;;;;;;;2.05;1.48;;;;;;;;;;5014763;28;20034;-76
2023/09/24 07:58:49;;;;;;;5.15;1.77;;;;;;;;;;5014445;28;20516;-76
2023/09/24 08:01:15;;;;;;;5.47;1.88;;;;;;;;;;5014418;28;20370;-75
2023/09/24 08:03:44;;;;;;;5.00;1.95;;;;;;;;;;5014677;28;20334;-76
2023/09/24 08:06:10;;;;;;;4.03;1.60;;;;;;;;;;5014601;28;20492;-76
2023/09/24 08:08:36;;;;;;;5.28;1.80;;;;;;;;;;5014452;28;20061;-76
2023/09/24 08:11:02;;;;;;;6.03;1.70;;;;;;;;;;5014329;28;20058;-75
2023/09/24 08:13:29;;;;;;;4.32;1.50;;;;;;;;;;5014326;28;20026;-76
2023/09/24 08:15:56;;;;;;;3.92;1.60;;;;;;;;;;5014291;28;20026;-76
2023/09/24 08:18:22;;;;;;;5.43;1.80;;;;;;;;;;5014429;28;20032;-75
2023/09/24 08:20:49;;;;;;;5.65;1.90;;;;;;;;;;5013877;28;20057;-76
2023/09/24 08:23:15;;;;;;;6.68;1.83;;;;;;;;;;5014333;28;20048;-76
2023/09/24 08:25:41;;;;;;;4.00;1.52;;;;;;;;;;5014107;28;20044;-76
2023/09/24 08:28:09;;;;;;;3.63;1.50;;;;;;;;;;5014018;28;20508;-76
2023/09/24 08:30:36;;;;;;;4.47;1.40;;;;;;;;;;5014191;28;20026;-76
2023/09/24 08:33:03;;;;;;;3.03;1.40;;;;;;;;;;5013876;28;20026;-76
2023/09/24 08:35:29;;;;;;;4.75;1.60;;;;;;;;;;5014083;28;20053;-76
2023/09/24 08:37:55;;;;;;;4.47;1.58;;;;;;;;;;5013728;28;20076;-75
2023/09/24 08:40:21;;;;;;;5.03;1.33;;;;;;;;;;5013651;28;20030;-76
2023/09/24 08:42:48;;;;;;;4.68;1.70;;;;;;;;;;5013717;28;20075;-76
2023/09/24 08:45:14;;;;;;;4.72;1.35;;;;;;;;;;5013312;28;20476;-76
2023/09/24 08:47:45;;;;;;;5.47;1.55;;;;;;;;;;5013440;28;20030;-76
2023/09/24 08:50:12;;;;;;;4.72;1.75;;;;;;;;;;5013512;28;20516;-76
2023/09/24 08:52:40;;;;;;;2.63;1.40;;;;;;;;;;5013435;28;20030;-76
2023/09/24 08:55:07;;;;;;;6.07;1.73;;;;;;;;;;5013713;28;20460;-76
2023/09/24 08:57:34;;;;;;;3.28;1.58;;;;;;;;;;5013277;28;20022;-76
2023/09/24 09:00:00;;;;;;;3.42;1.52;;;;;;;;;;5013068;28;20029;-76
2023/09/24 09:02:26;;;;;;;3.42;1.67;;;;;;;;;;5013269;28;20468;-76
2023/09/24 09:04:55;;;;;;;3.42;1.90;;;;;;;;;;5013817;28;20029;-77
2023/09/24 09:07:21;;;;;;;2.92;1.50;;;;;;;;;;5013632;28;20018;-76
2023/09/24 09:09:59;;;;;;;4.25;1.70;;;;;;;;;;5013256;28;20029;-76
2023/09/24 09:12:26;;;;;;;4.85;1.50;;;;;;;;;;5013575;28;20033;-76
2023/09/24 09:14:52;;;;;;;5.88;1.83;;;;;;;;;;5013123;28;20037;-76
2023/09/24 09:17:18;;;;;;;5.25;1.90;;;;;;;;;;5013059;28;20416;-76
2023/09/24 09:19:56;;;;;;;4.88;1.70;;;;;;;;;;5013293;28;20021;-76
2023/09/24 09:22:29;;;;;;;4.10;1.70;;;;;;;;;;5012856;28;20041;-76
2023/09/24 09:25:05;;;;;;;5.85;2.08;;;;;;;;;;5013339;28;20105;-76
2023/09/24 09:27:43;;;;;;;6.13;2.00;;;;;;;;;;5013037;28;20032;-76
2023/09/24 09:30:14;;;;;;;3.97;1.90;;;;;;;;;;5013294;28;20034;-76
2023/09/24 09:32:40;;;;;;;5.63;2.05;;;;;;;;;;5013122;28;20040;-76
2023/09/24 09:35:07;;;;;;;3.53;1.75;;;;;;;;;;5012942;28;20029;-76
2023/09/24 09:37:33;;;;;;;6.45;1.83;;;;;;;;;;5012870;28;20453;-76
2023/09/24 09:39:59;;;;;;;4.88;2.30;;;;;;;;;;5012530;28;20429;-76
2023/09/24 09:42:30;;;;;;;5.55;1.92;;;;;;;;;;5012985;28;20061;-76
2023/09/24 09:44:59;;;;;;;5.18;2.35;;;;;;;;;;5012699;28;20034;-76
2023/09/24 09:47:28;;;;;;;5.63;2.57;;;;;;;;;;5012666;28;20026;-75
2023/09/24 09:49:59;;;;;;;5.65;2.38;;;;;;;;;;5012567;28;20029;-75
2023/09/24 09:52:37;;;;;;;7.30;2.35;;;;;;;;;;5012721;28;20025;-76
2023/09/24 09:55:04;;;;;;;5.55;1.75;;;;;;;;;;5012579;28;20412;-75
2023/09/24 09:57:34;;;;;;;6.65;2.20;;;;;;;;;;5012199;28;20018;-75
2023/09/24 10:00:10;;;;;;;5.53;1.80;;;;;;;;;;5012516;28;20084;-76
2023/09/24 10:02:37;;;;;;;3.35;1.67;;;;;;;;;;5012430;28;20121;-76
2023/09/24 10:05:04;;;;;;;3.05;1.65;;;;;;;;;;5012491;28;20026;-77
2023/09/24 10:07:30;;;;;;;3.75;1.70;;;;;;;;;;4995003;28;20030;-76
2023/09/24 10:09:56;;;;;;;6.32;2.10;;;;;;;;;;5012387;28;20029;-76
2023/09/24 10:12:35;;;;;;;4.78;1.73;;;;;;;;;;5012204;28;20033;-76
2023/09/24 10:15:21;;;;;;;5.25;1.80;;;;;;;;;;5012592;28;20380;-77
2023/09/24 10:17:50;;;;;;;4.78;1.88;;;;;;;;;;5012136;28;20414;-76
2023/09/24 10:20:18;;;;;;;4.53;1.60;;;;;;;;;;5012592;28;20468;-77
2023/09/24 10:22:45;;;;;;;4.93;1.70;;;;;;;;;;5012075;28;20041;-76
2023/09/24 10:25:30;;;;;;;3.97;1.80;;;;;;;;;;5012555;28;20025;-76
2023/09/24 10:28:07;;;;;;;3.53;1.50;;;;;;;;;;5001786;28;20069;-76
2023/09/24 10:30:51;;;;;;;6.15;1.52;;;;;;;;;;4992704;28;20026;-76
2023/09/24 10:33:37;;;;;;;3.70;1.45;;;;;;;;;;4992723;28;20594;-76
2023/09/24 10:36:28;;;;;;;4.18;1.25;;;;;;;;;;4992601;28;20023;-76
2023/09/24 10:39:11;;;;;;;4.28;1.50;;;;;;;;;;4992906;28;20037;-76
2023/09/24 10:41:37;;;;;;;2.30;1.33;;;;;;;;;;4992937;28;20018;-76
2023/09/24 10:44:22;;;;;;;3.47;1.58;;;;;;;;;;4992607;28;20046;-77
2023/09/24 10:46:48;;;;;;;4.88;1.52;;;;;;;;;;4992638;28;20026;-76
2023/09/24 10:49:21;;;;;;;6.22;1.58;;;;;;;;;;4992494;28;20037;-76
2023/09/24 10:51:47;;;;;;;3.47;1.52;;;;;;;;;;4992472;28;20019;-76
2023/09/24 10:54:14;;;;;;;4.70;1.50;;;;;;;;;;5010948;28;20018;-76
2023/09/24 10:56:40;;;;;;;5.45;1.55;;;;;;;;;;5012167;28;20026;-76
2023/09/24 10:59:08;;;;;;;5.80;1.38;;;;;;;;;;5012097;28;20026;-76
2023/09/24 11:01:34;;;;;;;4.13;1.30;;;;;;;;;;5012082;28;20424;-76
2023/09/24 11:04:00;;;;;;;3.17;1.50;;;;;;;;;;5012064;28;20045;-77
2023/09/24 11:06:30;;;;;;;5.60;1.60;;;;;;;;;;5012401;28;20113;-77
2023/09/24 11:09:13;;;;;;;3.72;1.35;;;;;;;;;;5013555;28;20102;-76
2023/09/24 11:11:39;;;;;;;2.83;1.38;;;;;;;;;;5015299;28;20034;-76
2023/09/24 11:14:15;;;;;;;3.15;1.30;;;;;;;;;;5015529;28;20022;-77
2023/09/24 11:16:41;;;;;;;2.22;1.10;;;;;;;;;;5015503;28;20030;-76
2023/09/24 11:19:09;;;;;;;4.57;1.35;;;;;;;;;;5015540;28;20026;-77
2023/09/24 11:21:35;;;;;;;3.63;1.30;;;;;;;;;;5015447;28;20079;-77
2023/09/24 11:24:17;;;;;;;3.03;1.27;;;;;;;;;;5015566;28;20044;-76
2023/09/24 11:26:43;;;;;;;6.22;1.42;;;;;;;;;;5015073;28;20133;-77
2023/09/24 11:29:09;;;;;;;4.30;1.55;;;;;;;;;;5015199;28;20042;-76
2023/09/24 11:31:35;;;;;;;2.67;1.20;;;;;;;;;;5014603;28;20394;-76
2023/09/24 11:34:01;;;;;;;2.85;1.48;;;;;;;;;;5006338;28;20347;-76
2023/09/24 11:36:28;;;;;;;3.10;1.38;;;;;;;;;;5014859;28;20088;-76
2023/09/24 11:39:02;;;;;;;4.18;1.60;;;;;;;;;;5014415;28;20449;-76
2023/09/24 11:41:28;;;;;;;4.43;1.30;;;;;;;;;;5014248;28;20040;-76
2023/09/24 11:43:57;;;;;;;3.28;1.15;;;;;;;;;;5014188;28;20022;-76
2023/09/24 11:46:32;;;;;;;3.90;1.35;;;;;;;;;;5014308;28;20353;-76
2023/09/24 11:49:01;;;;;;;3.70;1.35;;;;;;;;;;4996432;28;20033;-76
2023/09/24 11:51:27;;;;;;;3.03;1.57;;;;;;;;;;5014109;28;20057;-76
2023/09/24 11:53:54;;;;;;;2.85;1.33;;;;;;;;;;5014208;28;20263;-77
2023/09/24 11:56:20;;;;;;;3.83;1.50;;;;;;;;;;5014696;28;20033;-76
2023/09/24 11:58:46;;;;;;;2.13;1.20;;;;;;;;;;5014476;28;20030;-76
2023/09/24 12:01:13;;;;;;;3.65;1.20;;;;;;;;;;5014862;28;20596;-76
2023/09/24 12:03:39;;;;;;;2.58;1.45;;;;;;;;;;5014552;28;20022;-76
2023/09/24 12:06:06;;;;;;;2.88;1.30;;;;;;;;;;5014811;28;20097;-76
2023/09/24 12:08:32;;;;;;;3.50;1.35;;;;;;;;;;5014602;28;20045;-76
2023/09/24 12:10:58;;;;;;;3.55;1.27;;;;;;;;;;5014435;28;20034;-76
2023/09/24 12:13:24;;;;;;;2.90;1.30;;;;;;;;;;5014452;28;20030;-76
2023/09/24 12:15:51;;;;;;;2.58;1.15;;;;;;;;;;5014494;28;20481;-77
2023/09/24 12:18:17;;;;;;;3.42;1.38;;;;;;;;;;5014364;28;20404;-76
2023/09/24 12:20:43;;;;;;;3.53;1.42;;;;;;;;;;5013116;28;20038;-77
2023/09/24 12:23:11;;;;;;;3.50;0.98;;;;;;;;;;5014154;28;20365;-77
2023/09/24 12:25:38;;;;;;;3.08;1.40;;;;;;;;;;5014295;28;20041;-76
2023/09/24 12:28:05;;;;;;;1.67;0.85;;;;;;;;;;4996564;28;20030;-77
2023/09/24 12:30:32;;;;;;;2.78;1.10;;;;;;;;;;5014095;28;20049;-76
2023/09/24 12:32:58;;;;;;;3.45;1.20;;;;;;;;;;5014288;28;20022;-76
2023/09/24 12:35:24;;;;;;;4.25;1.17;;;;;;;;;;5013828;28;20022;-76
2023/09/24 12:37:54;;;;;;;3.40;1.35;;;;;;;;;;5014196;28;20056;-76
2023/09/24 12:40:20;;;;;;;4.10;1.35;;;;;;;;;;5014179;28;20030;-76
2023/09/24 12:42:46;;;;;;;4.88;1.20;;;;;;;;;;5013780;28;20585;-77
2023/09/24 12:45:13;;;;;;;3.70;1.30;;;;;;;;;;4997069;28;20014;-77
2023/09/24 12:47:41;;;;;;;3.70;1.52;;;;;;;;;;5013653;28;20045;-77
2023/09/24 12:50:08;;;;;;;4.70;1.17;;;;;;;;;;5013428;28;20026;-77
2023/09/24 12:52:35;;;;;;;3.85;0.98;;;;;;;;;;5013646;28;20033;-77
2023/09/24 12:55:02;;;;;;;2.53;1.13;;;;;;;;;;4995895;28;20492;-76
2023/09/24 12:57:28;;;;;;;2.58;1.27;;;;;;;;;;5013591;28;20057;-76
2023/09/24 12:59:55;;;;;;;4.70;1.25;;;;;;;;;;5013963;28;20037;-77
2023/09/24 13:02:21;;;;;;;2.65;0.90;;;;;;;;;;5013875;28;20047;-77
2023/09/24 13:04:47;;;;;;;2.45;1.25;;;;;;;;;;5013439;28;20025;-77
2023/09/24 13:07:13;;;;;;;3.22;1.05;;;;;;;;;;5013471;28;20453;-77
2023/09/24 13:09:39;;;;;;;2.17;1.10;;;;;;;;;;5013475;28;20026;-77
2023/09/24 13:12:05;;;;;;;2.15;1.00;;;;;;;;;;5013347;28;20022;-77
2023/09/24 13:14:31;;;;;;;3.53;1.13;;;;;;;;;;5013070;28;20030;-77
2023/09/24 13:16:57;;;;;;;3.85;1.20;;;;;;;;;;5013565;28;20520;-77
2023/09/24 13:19:27;;;;;;;5.22;1.25;;;;;;;;;;5013248;28;20373;-77
2023/09/24 13:21:53;;;;;;;3.33;1.33;;;;;;;;;;5011928;28;20057;-77
2023/09/24 13:24:19;;;;;;;4.93;1.42;;;;;;;;;;5013780;28;20032;-77
2023/09/24 13:26:45;;;;;;;4.65;1.30;;;;;;;;;;5013411;28;20025;-76
2023/09/24 13:29:12;;;;;;;1.73;1.00;;;;;;;;;;5013438;28;20535;-77
2023/09/24 13:31:38;;;;;;;3.70;1.00;;;;;;;;;;5012610;28;20105;-77
2023/09/24 13:34:05;;;;;;;3.25;1.35;;;;;;;;;;5012725;28;20445;-76
2023/09/24 13:36:35;;;;;;;4.45;1.20;;;;;;;;;;5013022;28;20361;-76
2023/09/24 13:39:02;;;;;;;3.08;1.40;;;;;;;;;;5013006;28;20025;-76
2023/09/24 13:41:28;;;;;;;3.78;1.20;;;;;;;;;;5013019;28;20018;-77
2023/09/24 13:43:57;;;;;;;2.05;1.05;;;;;;;;;;5013275;28;20026;-77
2023/09/24 13:46:24;;;;;;;2.75;1.27;;;;;;;;;;5013652;28;20369;-77
2023/09/24 13:48:59;;;;;;;2.90;1.25;;;;;;;;;;5013117;28;20121;-77
2023/09/24 13:51:25;;;;;;;3.03;1.20;;;;;;;;;;5013694;28;20022;-77
2023/09/24 13:53:52;;;;;;;2.47;1.10;;;;;;;;;;5013564;28;20022;-77
2023/09/24 13:56:18;;;;;;;83.68;5.95;;;;;;;;;;5013373;28;20071;-77
2023/09/24 13:58:44;;;;;;;3.22;1.15;;;;;;;;;;5012887;28;20446;-77
2023/09/24 14:01:10;;;;;;;4.57;1.27;;;;;;;;;;5013186;28;20034;-76
2023/09/24 14:03:37;;;;;;;2.63;1.38;;;;;;;;;;5013422;28;20104;-77
2023/09/24 14:06:03;;;;;;;3.17;1.25;;;;;;;;;;5014094;28;20045;-77
2023/09/24 14:14:06;;;;;;;2.28;1.23;;;;;;;;;;5012654;28;20504;-76
2023/09/24 14:16:32;;;;;;;3.03;1.13;;;;;;;;;;5012821;28;20030;-76
2023/09/24 14:18:59;;;;;;;5.40;1.45;;;;;;;;;;5012463;28;20033;-76
2023/09/24 14:21:25;;;;;;;2.95;1.20;;;;;;;;;;4991290;28;20473;-76
2023/09/24 14:23:51;;;;;;;2.45;1.20;;;;;;;;;;4992605;28;20030;-76
2023/09/24 14:26:18;;;;;;;2.67;0.93;;;;;;;;;;4993530;28;20634;-77
2023/09/24 14:28:43;;;;;;;3.22;0.98;;;;;;;;;;4991933;28;20037;-77
2023/09/24 14:31:10;;;;;;;2.45;1.00;;;;;;;;;;4993000;28;20030;-77
2023/09/24 14:33:36;;;;;;;2.55;1.10;;;;;;;;;;4993068;28;20037;-76
2023/09/24 14:36:03;;;;;;;2.67;1.20;;;;;;;;;;4992668;28;20105;-77
2023/09/24 14:38:32;;;;;;;3.80;1.27;;;;;;;;;;4992817;28;20030;-77
2023/09/24 14:40:58;;;;;;;2.50;1.55;;;;;;;;;;4993146;28;20038;-77
2023/09/24 14:43:27;;;;;;;3.58;1.15;;;;;;;;;;4993798;28;20033;-77
2023/09/24 14:46:01;;;;;;;6.20;1.30;;;;;;;;;;4997167;28;20028;-77
2023/09/24 14:48:31;;;;;;;3.40;1.00;;;;;;;;;;4996481;28;20027;-77
2023/09/24 14:50:59;;;;;;;;;;;;;;;;;;4997175;28;20018;-77